Dades meteomassalio
Diari Summary for Febrer 16, 2017 Units:  Metric    English   Both
« Previous Day
Next Day »
Diari Semanal Mensual Anual Personalitzat
  Maxima: Minima: Mijana:
Temperatura: -17.8 °C -14.8 °C -12 °C
Rosada: -17.8 °C -15.4 °C -13.7 °C
Humitat: Humidity % 55 % 83 %
Velocitat del vent: 0 km/h 0 km/h 2.3 km/h
Racha vent: 0 km/h - -
Vent:- - East
Pressio: 0 hPa 34865.6 hPa -
Pluja: 0 mm    
Historical Graphs
 
 
Tabular Data for Febrer 16, 2017
Time Temperature Dew Point Pressure Wind Wind Speed Wind Gust Humidity Rainfall Rate (Hourly) solar Conditions
-17.8 °C -17.8 °C 0 hPa Calm     Humidity % 0 mm SolarRadiationWatts/m^2 W/m2 Conditions
00:01 -14.4 °C -15.1 °C 35038.3 hPa Calm     92 % 0 mm 0.0 W/m2 RA
00:06 -14.4 °C -15.1 °C 35038.3 hPa Calm     92 % 0 mm 0.0 W/m2 CLR
00:11 -14.4 °C -15.1 °C 35038.3 hPa Calm     92 % 0 mm 0.0 W/m2 CLR
00:16 -14.5 °C -15.2 °C 35038.3 hPa Calm     92 % 0 mm 0.0 W/m2 CLR
00:21 -14.5 °C -15.2 °C 35038.3 hPa Calm     92 % 0 mm 0.0 W/m2 CLR
00:31 -14.7 °C -15.3 °C 35038.3 hPa Calm     92 % 0 mm 0.0 W/m2 CLR
00:36 -14.7 °C -15.4 °C 35038.3 hPa Calm     92 % 0 mm 0.0 W/m2 CLR
00:41 -14.8 °C -15.4 °C 35038.3 hPa Calm     92 % 0 mm 0.0 W/m2 CLR
00:46 -14.8 °C -15.4 °C 35038.3 hPa Calm     92 % 0 mm 0.0 W/m2 CLR
00:56 -14.8 °C -15.4 °C 35038.3 hPa Calm     92 % 0 mm 0.0 W/m2 CLR
01:06 -14.7 °C -15.3 °C 35038.3 hPa Calm     93 % 0 mm 0.0 W/m2 CLR
01:11 -14.7 °C -15.3 °C 35038.3 hPa Calm     93 % 0 mm 0.0 W/m2 CLR
01:16 -14.7 °C -15.3 °C 35038.3 hPa Calm     92 % 0 mm 0.0 W/m2 CLR
01:21 -14.7 °C -15.3 °C 35038.3 hPa Calm     92 % 0 mm 0.0 W/m2 CLR
01:26 -14.6 °C -15.3 °C 35038.3 hPa Calm     92 % 0 mm 0.0 W/m2 CLR
01:31 -14.6 °C -15.2 °C 35038.3 hPa Calm     93 % 0 mm 0.0 W/m2 CLR
01:36 -14.6 °C -15.1 °C 35024.8 hPa Calm     93 % 0 mm 0.0 W/m2 CLR
01:41 -14.5 °C -15.1 °C 35024.8 hPa Calm     93 % 0 mm 0.0 W/m2 CLR
01:46 -14.4 °C -15 °C 35024.8 hPa Calm     93 % 0 mm 0.0 W/m2 CLR
01:51 -14.4 °C -14.9 °C 35024.8 hPa Calm     93 % 0 mm 0.0 W/m2 CLR
01:56 -14.3 °C -14.9 °C 35024.8 hPa Calm     93 % 0 mm 0.0 W/m2 CLR
02:01 -14.3 °C -14.8 °C 35024.8 hPa Calm     93 % 0 mm 0.0 W/m2 CLR
02:06 -14.3 °C -14.9 °C 35024.8 hPa Calm     92 % 0 mm 0.0 W/m2 CLR
02:11 -14.3 °C -14.9 °C 35024.8 hPa Calm     92 % 0 mm 0.0 W/m2 CLR
02:16 -14.2 °C -14.8 °C 35024.8 hPa Calm     93 % 0 mm 0.0 W/m2 CLR
02:21 -14.2 °C -14.8 °C 35014.6 hPa Calm     93 % 0 mm 0.0 W/m2 CLR
02:26 -14.1 °C -14.7 °C 35024.8 hPa Calm     93 % 0 mm 0.0 W/m2 CLR
02:31 -14.1 °C -14.7 °C 35014.6 hPa Calm     93 % 0 mm 0.0 W/m2 CLR
02:36 -14.1 °C -14.6 °C 35014.6 hPa Calm     93 % 0 mm 0.0 W/m2 CLR
02:41 -14 °C -14.6 °C 35024.8 hPa Calm     93 % 0 mm 0.0 W/m2 CLR
02:46 -14 °C -14.6 °C 35014.6 hPa Calm     93 % 0 mm 0.0 W/m2 CLR
02:51 -13.9 °C -14.5 °C 35014.6 hPa Calm     93 % 0 mm 0.0 W/m2 CLR
02:56 -13.9 °C -14.5 °C 35014.6 hPa Calm     93 % 0 mm 0.0 W/m2 CLR
03:01 -13.9 °C -14.6 °C 35014.6 hPa Calm     92 % 0 mm 0.0 W/m2 CLR
03:06 -13.9 °C -14.6 °C 35024.8 hPa Calm     92 % 0 mm 0.0 W/m2 CLR
03:11 -13.8 °C -14.6 °C 35014.6 hPa Calm     92 % 0 mm 0.0 W/m2 CLR
03:16 -13.8 °C -14.5 °C 35014.6 hPa Calm     92 % 0 mm 0.0 W/m2 CLR
03:21 -13.8 °C -14.5 °C 35014.6 hPa Calm     92 % 0 mm 0.0 W/m2 CLR
03:26 -13.8 °C -14.5 °C 35014.6 hPa Calm     92 % 0 mm 0.0 W/m2 CLR
03:31 -13.8 °C -14.5 °C 35014.6 hPa Calm     92 % 0 mm 0.0 W/m2 CLR
03:36 -13.8 °C -14.4 °C 35014.6 hPa Calm     92 % 0 mm 0.0 W/m2 CLR
03:41 -13.8 °C -14.4 °C 35014.6 hPa Calm     92 % 0 mm 0.0 W/m2 CLR
03:46 -13.7 °C -14.4 °C 35014.6 hPa Calm     92 % 0 mm 0.0 W/m2 CLR
03:51 -13.7 °C -14.4 °C 35014.6 hPa Calm     92 % 0 mm 0.0 W/m2 CLR
03:56 -13.7 °C -14.4 °C 35014.6 hPa Calm     92 % 0 mm 0.0 W/m2 CLR
04:01 -13.7 °C -14.4 °C 35014.6 hPa Calm     92 % 0 mm 0.0 W/m2 CLR
04:06 -13.7 °C -14.4 °C 35014.6 hPa Calm     92 % 0 mm 0.0 W/m2 CLR
04:11 -13.7 °C -14.3 °C 35014.6 hPa Calm     92 % 0 mm 0.0 W/m2 CLR
04:16 -13.7 °C -14.3 °C 35014.6 hPa Calm     92 % 0 mm 0.0 W/m2 CLR
04:21 -13.7 °C -14.3 °C 35001.1 hPa Calm     92 % 0 mm 0.0 W/m2 CLR
04:26 -13.6 °C -14.3 °C 35014.6 hPa Calm     92 % 0 mm 0.0 W/m2 CLR
04:31 -13.6 °C -14.3 °C 35001.1 hPa Calm     92 % 0 mm 0.0 W/m2 CLR
04:41 -13.6 °C -14.3 °C 35001.1 hPa Calm     92 % 0 mm 0.0 W/m2 CLR
04:46 -13.6 °C -14.2 °C 35001.1 hPa Calm     92 % 0 mm 0.0 W/m2 CLR
04:51 -13.5 °C -14.2 °C 35001.1 hPa Calm     92 % 0 mm 0.0 W/m2 CLR
04:56 -13.5 °C -14.2 °C 35001.1 hPa Calm     92 % 0 mm 0.0 W/m2 CLR
05:01 -13.6 °C -14.2 °C 35001.1 hPa Calm     92 % 0 mm 0.0 W/m2 CLR
05:06 -13.6 °C -14.2 °C 35001.1 hPa Calm     92 % 0 mm 0.0 W/m2 CLR
05:11 -13.6 °C -14.2 °C 35001.1 hPa Calm     92 % 0 mm 0.0 W/m2 CLR
05:16 -13.5 °C -14.2 °C 35001.1 hPa Calm     92 % 0 mm 0.0 W/m2 CLR
05:21 -13.5 °C -14.2 °C 35001.1 hPa Calm     92 % 0 mm 0.0 W/m2 CLR
05:26 -13.5 °C -14.2 °C 35001.1 hPa Calm     92 % 0 mm 0.0 W/m2 CLR
05:31 -13.5 °C -14.2 °C 35001.1 hPa Calm     92 % 0 mm 0.0 W/m2 CLR
05:36 -13.4 °C -14.1 °C 35001.1 hPa Calm     92 % 0 mm 0.0 W/m2 CLR
05:41 -13.5 °C -14.2 °C 35001.1 hPa Calm     92 % 0 mm 0.0 W/m2 CLR
05:46 -13.5 °C -14.2 °C 35001.1 hPa Calm     92 % 0 mm 0.0 W/m2 CLR
05:51 -13.4 °C -14.1 °C 35001.1 hPa Calm     92 % 0 mm 0.0 W/m2 CLR
05:56 -13.5 °C -14.2 °C 35001.1 hPa Calm     92 % 0 mm 0.0 W/m2 CLR
06:01 -13.5 °C -14.2 °C 35001.1 hPa Calm     92 % 0 mm 0.0 W/m2 CLR
06:06 -13.5 °C -14.2 °C 35001.1 hPa Calm     92 % 0 mm 0.0 W/m2 CLR
06:11 -13.5 °C -14.2 °C 35001.1 hPa Calm     92 % 0 mm 0.0 W/m2 CLR
06:16 -13.4 °C -14.1 °C 35001.1 hPa Calm     92 % 0 mm 0.0 W/m2 CLR
06:21 -13.3 °C -14 °C 35001.1 hPa Calm     92 % 0 mm 0.0 W/m2 CLR
06:26 -13.2 °C -13.8 °C 35001.1 hPa Calm     93 % 0 mm 0.0 W/m2 CLR
06:31 -13.2 °C -13.9 °C 35001.1 hPa Calm     92 % 0 mm 0.0 W/m2 CLR
06:36 -13.3 °C -13.9 °C 35001.1 hPa Calm     92 % 0 mm 0.0 W/m2 CLR
06:41 -13.3 °C -14 °C 35001.1 hPa Calm     92 % 0 mm 0.0 W/m2 CLR
06:46 -13.3 °C -14 °C 35001.1 hPa Calm     92 % 0 mm 0.0 W/m2 CLR
06:51 -13.3 °C -14 °C 35001.1 hPa Calm     92 % 0 mm 0.0 W/m2 CLR
06:56 -13.3 °C -14 °C 35001.1 hPa Calm     92 % 0 mm 0.0 W/m2 CLR
07:02 -13.3 °C -14 °C 35001.1 hPa Calm     92 % 0 mm 0.0 W/m2 CLR
07:07 -13.3 °C -13.9 °C 35001.1 hPa Calm     93 % 0 mm 0.0 W/m2 CLR
07:12 -13.3 °C -13.9 °C 35001.1 hPa Calm     93 % 0 mm 0.0 W/m2 CLR
07:17 -13.3 °C -13.9 °C 35001.1 hPa Calm     93 % 0 mm 0.0 W/m2 CLR
07:22 -13.3 °C -13.9 °C 35001.1 hPa Calm     93 % 0 mm 0.0 W/m2 CLR
07:27 -13.3 °C -13.8 °C 35001.1 hPa Calm     93 % 0 mm 0.0 W/m2 CLR
07:32 -13.3 °C -13.8 °C 35001.1 hPa Calm     93 % 0 mm 0.0 W/m2 CLR
07:37 -13.3 °C -13.8 °C 35014.6 hPa Calm     93 % 0 mm 0.0 W/m2 CLR
07:42 -13.3 °C -13.9 °C 35014.6 hPa Calm     93 % 0 mm 0.0 W/m2 CLR
07:47 -13.3 °C -13.9 °C 35014.6 hPa Calm     93 % 0 mm 0.0 W/m2 OVC
07:52 -13.3 °C -13.9 °C 35014.6 hPa Calm     93 % 0 mm 0.0 W/m2 OVC
07:57 -13.3 °C -13.9 °C 35014.6 hPa Calm     93 % 0 mm 0.0 W/m2 OVC
08:02 -13.3 °C -13.9 °C 35014.6 hPa Calm     93 % 0 mm 0.0 W/m2 OVC
08:07 -13.3 °C -13.9 °C 35014.6 hPa Calm     93 % 0 mm 5.0 W/m2 OVC
08:12 -13.3 °C -13.9 °C 35014.6 hPa Calm     93 % 0 mm 11.0 W/m2 BKN
08:17 -13.3 °C -13.9 °C 35014.6 hPa Calm     93 % 0 mm 16.0 W/m2 BKN
08:22 -13.3 °C -13.9 °C 35014.6 hPa Calm     93 % 0 mm 21.0 W/m2 BKN
08:27 -13.3 °C -13.9 °C 35014.6 hPa Calm     93 % 0 mm 26.0 W/m2 BKN
08:32 -13.3 °C -13.9 °C 35014.6 hPa Calm     93 % 0 mm 39.0 W/m2 BKN
08:37 -13.2 °C -13.8 °C 35014.6 hPa Calm     93 % 0 mm 56.0 W/m2 SCT
08:42 -13.2 °C -13.7 °C 35014.6 hPa Calm     93 % 0 mm 70.0 W/m2 FEW
08:47 -13.1 °C -13.7 °C 35014.6 hPa Calm     93 % 0 mm 74.0 W/m2 FEW
08:52 -13 °C -13.6 °C 35014.6 hPa Calm     93 % 0 mm 76.0 W/m2 FEW
08:57 -13 °C -13.6 °C 35014.6 hPa Calm     93 % 0 mm 79.0 W/m2 FEW
09:02 -13.1 °C -13.8 °C 35014.6 hPa Calm     92 % 0 mm 93.0 W/m2 FEW
09:07 -13.1 °C -13.7 °C 35014.6 hPa Calm     93 % 0 mm 113.0 W/m2 CLR
09:12 -13.1 °C -13.7 °C 35014.6 hPa Calm     93 % 0 mm 111.0 W/m2 CLR
09:17 -13 °C -13.6 °C 35014.6 hPa Calm     93 % 0 mm 111.0 W/m2 CLR
09:22 -12.9 °C -13.5 °C 35014.6 hPa Calm     93 % 0 mm 123.0 W/m2 CLR
09:27 -12.8 °C -13.4 °C 35014.6 hPa Calm     93 % 0 mm 141.0 W/m2 CLR
09:32 -12.7 °C -13.3 °C 35014.6 hPa Calm     93 % 0 mm 153.0 W/m2 CLR
09:37 -12.6 °C -13.1 °C 35014.6 hPa Calm     93 % 0 mm 156.0 W/m2 CLR
09:42 -12.4 °C -13 °C 35014.6 hPa Calm     93 % 0 mm 162.0 W/m2 CLR
09:47 -12.4 °C -13.1 °C 35014.6 hPa Calm     92 % 0 mm 160.0 W/m2 CLR
09:52 -12.3 °C -13 °C 35014.6 hPa Calm     92 % 0 mm 156.0 W/m2 CLR
09:57 -12.3 °C -13.1 °C 35001.1 hPa Calm     91 % 0 mm 163.0 W/m2 CLR
10:02 -12.3 °C -13.1 °C 35014.6 hPa Calm     91 % 0 mm 155.0 W/m2 CLR
10:07 -12.3 °C -13.1 °C 35014.6 hPa Calm     91 % 0 mm 181.0 W/m2 CLR
10:12 -12.2 °C -12.9 °C 35001.1 hPa Calm     91 % 0 mm 169.0 W/m2 CLR
10:17 -12.1 °C -12.9 °C 35001.1 hPa Calm     90 % 0 mm 241.0 W/m2 CLR
10:22 -11.9 °C -12.8 °C 35001.1 hPa Calm     90 % 0 mm 239.0 W/m2 CLR
10:27 -11.8 °C -12.7 °C 35001.1 hPa Calm     90 % 0 mm 274.0 W/m2 CLR
10:32 -11.6 °C -12.4 °C 35001.1 hPa Calm     90 % 0 mm 292.0 W/m2 CLR
10:37 -11.4 °C -12.4 °C 35001.1 hPa Calm     88 % 0 mm 306.0 W/m2 CLR
10:42 -11.2 °C -12.5 °C 35001.1 hPa Calm     86 % 0 mm 359.0 W/m2 CLR
10:47 -11.1 °C -12.3 °C 35001.1 hPa Calm     86 % 0 mm 396.0 W/m2 CLR
10:52 -10.9 °C -12.3 °C 35001.1 hPa Calm     84 % 0 mm 425.0 W/m2 CLR
10:57 -10.7 °C -12.3 °C 34990.9 hPa Calm     83 % 0 mm 385.0 W/m2 CLR
11:02 -10.7 °C -12.4 °C 34990.9 hPa Calm     81 % 0 mm 332.0 W/m2 CLR
11:07 -10.7 °C -12.3 °C 34990.9 hPa Calm     82 % 0 mm 346.0 W/m2 CLR
11:12 -10.7 °C -12.3 °C 34990.9 hPa Calm     82 % 0 mm 448.0 W/m2 CLR
11:17 -10.5 °C -12.2 °C 34990.9 hPa Calm     82 % 0 mm 494.0 W/m2 CLR
11:22 -10.4 °C -12.2 °C 34990.9 hPa Calm     81 % 0 mm 513.0 W/m2 CLR
11:27 -10.2 °C -12.1 °C 34990.9 hPa Calm     81 % 0 mm 550.0 W/m2 CLR
11:32 -10 °C -11.8 °C 34980.8 hPa Calm     81 % 0 mm 564.0 W/m2 CLR
11:37 -9.9 °C -11.9 °C 34980.8 hPa Calm     79 % 0 mm 582.0 W/m2 CLR
11:42 -9.8 °C -11.9 °C 34980.8 hPa Calm     78 % 0 mm 596.0 W/m2 CLR
11:47 -9.8 °C -12.2 °C 34980.8 hPa Calm     76 % 0 mm 285.0 W/m2 CLR
11:52 -9.9 °C -12.2 °C 34980.8 hPa Calm     76 % 0 mm 571.0 W/m2 CLR
11:57 -9.8 °C -12.1 °C 34980.8 hPa Calm     76 % 0 mm 640.0 W/m2 CLR
12:07 -9.6 °C -12.3 °C 34980.8 hPa NE 9 km/h 9 km/h 73 % 0 mm 643.0 W/m2 CLR
12:12 -9.6 °C -12.4 °C 34967.2 hPa East 10.3 km/h 10.3 km/h 71 % 0 mm 638.0 W/m2 CLR
12:17 -9.6 °C -12.5 °C 34967.2 hPa Calm     71 % 0 mm 230.0 W/m2 CLR
12:22 -9.7 °C -12.4 °C 34967.2 hPa SE 9 km/h 9 km/h 72 % 0 mm 288.0 W/m2 CLR
12:27 -9.6 °C -12.2 °C 34967.2 hPa Calm     74 % 0 mm 330.0 W/m2 CLR
12:32 -9.5 °C -12.1 °C 34967.2 hPa Calm     73 % 0 mm 343.0 W/m2 CLR
12:37 -9.4 °C -12.3 °C 34967.2 hPa Calm     71 % 0 mm 341.0 W/m2 CLR
12:42 -9.4 °C -12.3 °C 34967.2 hPa Calm     71 % 0 mm 322.0 W/m2 CLR
12:47 -9.4 °C -12.7 °C 34967.2 hPa SE 12.9 km/h 12.9 km/h 68 % 0 mm 283.0 W/m2 CLR
12:52 -9.5 °C -12.8 °C 34957.1 hPa East 6 km/h   67 % 0 mm 251.0 W/m2 CLR
12:57 -9.5 °C -12.7 °C 34957.1 hPa Calm     68 % 0 mm 255.0 W/m2 CLR
13:02 -9.5 °C -12.7 °C 34957.1 hPa Calm     68 % 0 mm 276.0 W/m2 CLR
13:07 -9.4 °C -12.6 °C 34957.1 hPa Calm     69 % 0 mm 299.0 W/m2 CLR
13:12 -9.3 °C -12.8 °C 34946.9 hPa Calm     66 % 0 mm 244.0 W/m2 CLR
13:17 -9.3 °C -12.9 °C 34946.9 hPa SE 9 km/h   65 % 0 mm 218.0 W/m2 CLR
13:22 -9.3 °C -12.8 °C 34946.9 hPa NNE 9 km/h 9 km/h 66 % 0 mm 782.0 W/m2 CLR
13:27 -9.1 °C -12.4 °C 34946.9 hPa NE 9 km/h   67 % 0 mm 798.0 W/m2 CLR
13:32 -8.9 °C -12.2 °C 34933.4 hPa NNE 26.9 km/h 26.9 km/h 68 % 0 mm 392.0 W/m2 CLR
13:37 -9 °C -12.6 °C 34933.4 hPa Calm     66 % 0 mm 292.0 W/m2 CLR
13:42 -9.1 °C -12.3 °C 34933.4 hPa NE 18.2 km/h 18.2 km/h 68 % 0 mm 281.0 W/m2 CLR
13:47 -9.1 °C -12.1 °C 34923.2 hPa Calm     70 % 0 mm 568.0 W/m2 CLR
13:52 -9.1 °C -12.3 °C 34923.2 hPa Calm     68 % 0 mm 223.0 W/m2 CLR
13:57 -9.1 °C -12.9 °C 34923.2 hPa ENE 23.8 km/h 23.8 km/h 64 % 0 mm 221.0 W/m2 CLR
14:02 -9.2 °C -13 °C 34923.2 hPa ESE 17.9 km/h 17.9 km/h 64 % 0 mm 269.0 W/m2 CLR
14:07 -9.3 °C -13.1 °C 34923.2 hPa East 11.9 km/h 11.9 km/h 64 % 0 mm 615.0 W/m2 CLR
14:12 -9.2 °C -12.7 °C 34909.7 hPa ENE 12.9 km/h 12.9 km/h 66 % 0 mm 297.0 W/m2 CLR
14:17 -9.2 °C -12.9 °C 34909.7 hPa ENE 20.9 km/h 20.9 km/h 65 % 0 mm 257.0 W/m2 CLR
14:22 -9.3 °C -13.1 °C 34909.7 hPa ENE 17.9 km/h 17.9 km/h 64 % 0 mm 211.0 W/m2 CLR
14:27 -9.3 °C -12.7 °C 34909.7 hPa NE 15 km/h 15 km/h 67 % 0 mm 499.0 W/m2 CLR
14:32 -9.2 °C -13 °C 34909.7 hPa ENE 17.9 km/h 17.9 km/h 64 % 0 mm 466.0 W/m2 CLR
14:37 -9.1 °C -12.9 °C 34909.7 hPa NE 17.9 km/h 17.9 km/h 64 % 0 mm 657.0 W/m2 CLR
14:42 -8.9 °C -13 °C 34899.5 hPa ENE 18.2 km/h 18.2 km/h 62 % 0 mm 575.0 W/m2 CLR
14:47 -8.9 °C -13.1 °C 34899.5 hPa NE 3.1 km/h   61 % 0 mm 545.0 W/m2 CLR
14:52 -8.9 °C -13.3 °C 34889.3 hPa ESE 26.9 km/h 26.9 km/h 59 % 0 mm 497.0 W/m2 CLR
14:57 -8.8 °C -13.3 °C 34899.5 hPa NE 11.9 km/h 11.9 km/h 59 % 0 mm 336.0 W/m2 CLR
15:02 -8.8 °C -13 °C 34889.3 hPa East 6 km/h 6 km/h 61 % 0 mm 338.0 W/m2 CLR
15:07 -8.8 °C -13.2 °C 34889.3 hPa NE 15 km/h 15 km/h 60 % 0 mm 292.0 W/m2 CLR
15:12 -8.9 °C -13.1 °C 34889.3 hPa NE 23.8 km/h 23.8 km/h 61 % 0 mm 283.0 W/m2 CLR
15:17 -9.1 °C -13.1 °C 34889.3 hPa ENE 9 km/h 9 km/h 62 % 0 mm 294.0 W/m2 CLR
15:22 -9.1 °C -12.9 °C 34889.3 hPa NE 10.3 km/h 10.3 km/h 63 % 0 mm 380.0 W/m2 CLR
15:28 -8.9 °C -13.1 °C 34889.3 hPa NE 12.9 km/h 12.9 km/h 61 % 0 mm 357.0 W/m2 CLR
15:33 -8.9 °C -13.3 °C 34889.3 hPa ESE 6 km/h 6 km/h 59 % 0 mm 218.0 W/m2 CLR
15:38 -8.9 °C -13.5 °C 34875.8 hPa Calm     58 % 0 mm 468.0 W/m2 CLR
15:43 -8.8 °C -13.2 °C 34875.8 hPa East 11.9 km/h 11.9 km/h 59 % 0 mm 483.0 W/m2 CLR
15:48 -8.7 °C -13.4 °C 34875.8 hPa Calm     57 % 0 mm 427.0 W/m2 CLR
15:53 -8.7 °C -13.3 °C 34875.8 hPa East 10.3 km/h 10.3 km/h 58 % 0 mm 443.0 W/m2 CLR
15:58 -8.7 °C -13.3 °C 34875.8 hPa Calm     58 % 0 mm 334.0 W/m2 CLR
16:03 -8.7 °C -13.4 °C 34875.8 hPa ESE 9 km/h 9 km/h 57 % 0 mm 311.0 W/m2 CLR
16:08 -8.8 °C -13.6 °C 34875.8 hPa East 11.9 km/h 11.9 km/h 57 % 0 mm 269.0 W/m2 CLR
16:13 -8.8 °C -13.6 °C 34875.8 hPa ENE 11.9 km/h 11.9 km/h 57 % 0 mm 313.0 W/m2 CLR
16:18 -8.8 °C -13.6 °C 34875.8 hPa Calm     57 % 0 mm 290.0 W/m2 CLR
16:23 -8.8 °C -13.6 °C 34875.8 hPa East 6 km/h   57 % 0 mm 209.0 W/m2 CLR
16:28 -8.9 °C -13.9 °C 34875.8 hPa Calm     55 % 0 mm 171.0 W/m2 CLR
16:33 -8.9 °C -13.7 °C 34875.8 hPa East 6 km/h 6 km/h 57 % 0 mm 149.0 W/m2 CLR
16:38 -8.9 °C -13.7 °C 34865.6 hPa ESE 11.9 km/h 11.9 km/h 57 % 0 mm 153.0 W/m2 CLR
16:48 -9.1 °C -13.5 °C 34865.6 hPa ENE 11.9 km/h 11.9 km/h 59 % 0 mm 130.0 W/m2 CLR
16:53 -9.1 °C -13.4 °C 34865.6 hPa ENE 20.9 km/h 20.9 km/h 60 % 0 mm 121.0 W/m2 CLR
16:58 -9.2 °C -13.3 °C 34865.6 hPa East 11.9 km/h 11.9 km/h 61 % 0 mm 128.0 W/m2 CLR
17:03 -9.3 °C -13.4 °C 34865.6 hPa East 11.9 km/h 11.9 km/h 61 % 0 mm 125.0 W/m2 CLR
17:08 -9.3 °C -13.3 °C 34875.8 hPa ENE 7.7 km/h 7.7 km/h 62 % 0 mm 118.0 W/m2 CLR
17:13 -9.3 °C -13.3 °C 34865.6 hPa East 11.9 km/h 11.9 km/h 62 % 0 mm 111.0 W/m2 CLR
17:18 -9.3 °C -13.5 °C 34865.6 hPa Calm     61 % 0 mm 104.0 W/m2 CLR
17:23 -9.4 °C -13.3 °C 34865.6 hPa East 3.1 km/h 3.1 km/h 63 % 0 mm 98.0 W/m2 CLR
17:28 -9.4 °C -13.3 °C 34875.8 hPa ENE 11.9 km/h 11.9 km/h 63 % 0 mm 93.0 W/m2 CLR
17:33 -9.4 °C -13.2 °C 34875.8 hPa ESE 12.9 km/h 12.9 km/h 64 % 0 mm 91.0 W/m2 CLR
17:38 -9.5 °C -13.3 °C 34875.8 hPa East 6 km/h 6 km/h 64 % 0 mm 84.0 W/m2 CLR
17:43 -9.6 °C -13.1 °C 34875.8 hPa ESE 11.9 km/h 11.9 km/h 66 % 0 mm 72.0 W/m2 FEW
17:48 -9.6 °C -13 °C 34875.8 hPa Calm     67 % 0 mm 62.0 W/m2 SCT
17:53 -9.7 °C -12.9 °C 34875.8 hPa East 11.9 km/h 11.9 km/h 68 % 0 mm 54.0 W/m2 SCT
17:58 -9.8 °C -12.9 °C 34875.8 hPa Calm     69 % 0 mm 46.0 W/m2 SCT
18:03 -9.8 °C -12.8 °C 34875.8 hPa ESE 9 km/h 9 km/h 70 % 0 mm 39.0 W/m2 BKN
18:08 -9.9 °C -12.7 °C 34875.8 hPa ESE 3.1 km/h   71 % 0 mm 32.0 W/m2 BKN
18:13 -9.9 °C -12.7 °C 34875.8 hPa Calm     72 % 0 mm 21.0 W/m2 BKN
18:18 -10.1 °C -12.7 °C 34875.8 hPa Calm     73 % 0 mm 14.0 W/m2 BKN
18:33 -10.2 °C -12.7 °C 34889.3 hPa Calm     74 % 0 mm 0.0 W/m2 OVC
18:38 -10.3 °C -12.7 °C 34889.3 hPa Calm     75 % 0 mm 0.0 W/m2 OVC
18:43 -10.4 °C -12.8 °C 34889.3 hPa Calm     75 % 0 mm 0.0 W/m2 OVC
18:48 -10.4 °C -12.7 °C 34889.3 hPa Calm     76 % 0 mm 0.0 W/m2 CLR
18:53 -10.4 °C -12.8 °C 34889.3 hPa Calm     76 % 0 mm 0.0 W/m2 CLR
18:58 -10.6 °C -12.7 °C 34889.3 hPa Calm     77 % 0 mm 0.0 W/m2 CLR
19:03 -10.6 °C -12.8 °C 34889.3 hPa Calm     77 % 0 mm 0.0 W/m2 CLR
19:08 -10.7 °C -12.7 °C 34899.5 hPa Calm     78 % 0 mm 0.0 W/m2 CLR
19:13 -10.7 °C -12.8 °C 34899.5 hPa Calm     78 % 0 mm 0.0 W/m2 CLR
19:18 -10.8 °C -12.8 °C 34899.5 hPa Calm     79 % 0 mm 0.0 W/m2 CLR
19:23 -10.9 °C -12.9 °C 34899.5 hPa Calm     79 % 0 mm 0.0 W/m2 CLR
19:28 -11 °C -12.8 °C 34899.5 hPa Calm     80 % 0 mm 0.0 W/m2 CLR
19:33 -11.1 °C -12.8 °C 34899.5 hPa Calm     81 % 0 mm 0.0 W/m2 CLR
19:38 -11.2 °C -12.9 °C 34899.5 hPa Calm     81 % 0 mm 0.0 W/m2 CLR
19:43 -11.3 °C -13 °C 34909.7 hPa Calm     81 % 0 mm 0.0 W/m2 CLR
19:48 -11.3 °C -13 °C 34909.7 hPa Calm     82 % 0 mm 0.0 W/m2 CLR
19:53 -11.5 °C -13.2 °C 34909.7 hPa Calm     82 % 0 mm 0.0 W/m2 CLR
19:58 -11.6 °C -13.1 °C 34909.7 hPa Calm     84 % 0 mm 0.0 W/m2 CLR
20:03 -11.8 °C -13.2 °C 34909.7 hPa Calm     84 % 0 mm 0.0 W/m2 CLR
20:08 -11.8 °C -13.2 °C 34909.7 hPa Calm     85 % 0 mm 0.0 W/m2 CLR
20:13 -11.9 °C -13.3 °C 34909.7 hPa Calm     85 % 0 mm 0.0 W/m2 CLR
20:18 -12 °C -13.2 °C 34909.7 hPa Calm     86 % 0 mm 0.0 W/m2 CLR
20:23 -12.1 °C -13.3 °C 34923.2 hPa Calm     86 % 0 mm 0.0 W/m2 CLR
20:28 -12.2 °C -13.4 °C 34923.2 hPa Calm     86 % 0 mm 0.0 W/m2 CLR
20:33 -12.2 °C -13.4 °C 34923.2 hPa Calm     87 % 0 mm 0.0 W/m2 CLR
20:38 -12.3 °C -13.4 °C 34923.2 hPa Calm     87 % 0 mm 0.0 W/m2 CLR
20:43 -12.3 °C -13.4 °C 34923.2 hPa Calm     87 % 0 mm 0.0 W/m2 CLR
20:48 -12.4 °C -13.5 °C 34923.2 hPa Calm     87 % 0 mm 0.0 W/m2 CLR
20:53 -12.4 °C -13.6 °C 34923.2 hPa Calm     87 % 0 mm 0.0 W/m2 CLR
20:58 -12.6 °C -13.6 °C 34923.2 hPa Calm     88 % 0 mm 0.0 W/m2 CLR
21:03 -12.6 °C -13.7 °C 34923.2 hPa Calm     88 % 0 mm 0.0 W/m2 CLR
21:09 -12.7 °C -13.7 °C 34923.2 hPa Calm     88 % 0 mm 0.0 W/m2 CLR
21:13 -12.7 °C -13.7 °C 34923.2 hPa Calm     89 % 0 mm 0.0 W/m2 CLR
21:19 -12.7 °C -13.8 °C 34933.4 hPa Calm     88 % 0 mm 0.0 W/m2 CLR
21:24 -12.8 °C -13.9 °C 34933.4 hPa Calm     88 % 0 mm 0.0 W/m2 CLR
21:29 -12.9 °C -13.8 °C 34933.4 hPa Calm     89 % 0 mm 0.0 W/m2 CLR
21:34 -13 °C -13.9 °C 34933.4 hPa Calm     89 % 0 mm 0.0 W/m2 CLR
21:39 -13.1 °C -14 °C 34933.4 hPa Calm     89 % 0 mm 0.0 W/m2 CLR
21:44 -13.2 °C -14.1 °C 34933.4 hPa Calm     89 % 0 mm 0.0 W/m2 CLR
21:49 -13.3 °C -14.2 °C 34933.4 hPa Calm     89 % 0 mm 0.0 W/m2 CLR
21:54 -13.3 °C -14.2 °C 34946.9 hPa Calm     90 % 0 mm 0.0 W/m2 CLR
21:59 -13.4 °C -14.2 °C 34946.9 hPa Calm     90 % 0 mm 0.0 W/m2 CLR
22:04 -13.4 °C -14.2 °C 34946.9 hPa Calm     90 % 0 mm 0.0 W/m2 CLR
22:09 -13.4 °C -14.3 °C 34946.9 hPa Calm     90 % 0 mm 0.0 W/m2 CLR
22:14 -13.5 °C -14.3 °C 34946.9 hPa Calm     90 % 0 mm 0.0 W/m2 CLR
22:19 -13.6 °C -14.4 °C 34946.9 hPa Calm     90 % 0 mm 0.0 W/m2 CLR
22:24 -13.7 °C -14.6 °C 34946.9 hPa Calm     90 % 0 mm 0.0 W/m2 CLR
22:29 -13.7 °C -14.6 °C 34946.9 hPa Calm     90 % 0 mm 0.0 W/m2 CLR
22:34 -13.8 °C -14.7 °C 34946.9 hPa Calm     90 % 0 mm 0.0 W/m2 CLR
22:39 -13.8 °C -14.6 °C 34946.9 hPa Calm     91 % 0 mm 0.0 W/m2 CLR
22:44 -13.9 °C -14.7 °C 34946.9 hPa Calm     91 % 0 mm 0.0 W/m2 CLR
22:49 -14 °C -14.8 °C 34946.9 hPa Calm     91 % 0 mm 0.0 W/m2 CLR
22:54 -14.1 °C -14.8 °C 34946.9 hPa Calm     91 % 0 mm 0.0 W/m2 CLR
22:59 -14.1 °C -14.9 °C 34946.9 hPa Calm     91 % 0 mm 0.0 W/m2 CLR
23:04 -14.1 °C -14.9 °C 34946.9 hPa Calm     91 % 0 mm 0.0 W/m2 CLR
23:09 -14.1 °C -14.8 °C 34946.9 hPa Calm     92 % 0 mm 0.0 W/m2 CLR
23:14 -14.1 °C -14.8 °C 34946.9 hPa Calm     92 % 0 mm 0.0 W/m2 CLR
23:19 -14.2 °C -14.9 °C 34946.9 hPa Calm     91 % 0 mm 0.0 W/m2 CLR
23:24 -14.2 °C -14.9 °C 34946.9 hPa Calm     92 % 0 mm 0.0 W/m2 CLR
23:29 -14.3 °C -14.9 °C 34946.9 hPa Calm     92 % 0 mm 0.0 W/m2 CLR
23:34 -14.3 °C -15.1 °C 34946.9 hPa Calm     92 % 0 mm 0.0 W/m2 CLR
23:39 -14.4 °C -15.1 °C 34946.9 hPa Calm     92 % 0 mm 0.0 W/m2 CLR
23:44 -14.4 °C -15.1 °C 34946.9 hPa Calm     92 % 0 mm 0.0 W/m2 CLR
23:49 -14.5 °C -15.2 °C 34946.9 hPa Calm     92 % 0 mm 0.0 W/m2 CLR
23:54 -14.5 °C -15.2 °C 34946.9 hPa Calm     92 % 0 mm 0.0 W/m2 CLR
23:59 -14.6 °C -15.2 °C 34933.4 hPa Calm     92 % 0 mm 0.0 W/m2 CLR
Lo Temps de Massalio
Compliments of Weather Underground - 1.25 mb